Time;durP1;ratioP1;P1;durP2;ratioP2;P2;SDS_P1;SDS_P2;PMS_P1;PMS_P2;Temp;Humidity;BMP_temperature;BMP_pressure;BME280_temperature;BME280_humidity;BME280_pressure;Samples;Min_cycle;Max_cycle;Signal;HPM_P1;HPM_P2
2022/07/09 00:02:15;;;;;;;11.82;5.22;;;;;;;;;;5112865;28;20039;-68
2022/07/09 00:04:41;;;;;;;11.32;5.80;;;;;;;;;;5112828;27;20083;-68
2022/07/09 00:07:07;;;;;;;13.65;5.65;;;;;;;;;;5113735;28;20053;-68
2022/07/09 00:09:33;;;;;;;10.65;5.20;;;;;;;;;;5113612;28;20039;-68
2022/07/09 00:11:59;;;;;;;13.10;5.38;;;;;;;;;;5113144;28;20619;-68
2022/07/09 00:14:25;;;;;;;9.43;5.22;;;;;;;;;;5113738;28;20050;-68
2022/07/09 00:16:51;;;;;;;11.50;4.80;;;;;;;;;;5113632;28;20085;-68
2022/07/09 00:19:17;;;;;;;11.18;5.10;;;;;;;;;;5112590;28;20047;-68
2022/07/09 00:21:43;;;;;;;10.05;5.28;;;;;;;;;;5113495;27;20122;-68
2022/07/09 00:24:09;;;;;;;15.23;4.90;;;;;;;;;;5113558;28;20046;-68
2022/07/09 00:26:35;;;;;;;18.02;5.28;;;;;;;;;;5124771;27;20091;-68
2022/07/09 00:29:01;;;;;;;15.35;5.35;;;;;;;;;;5133918;27;20385;-68
2022/07/09 00:31:27;;;;;;;13.77;5.75;;;;;;;;;;5133857;27;20031;-68
2022/07/09 00:33:54;;;;;;;9.43;5.75;;;;;;;;;;5132959;27;20571;-68
2022/07/09 00:36:20;;;;;;;12.85;5.18;;;;;;;;;;5133756;27;20046;-68
2022/07/09 00:38:46;;;;;;;8.75;5.40;;;;;;;;;;5133578;27;20050;-68
2022/07/09 00:41:12;;;;;;;10.82;5.50;;;;;;;;;;5133111;27;20074;-68
2022/07/09 00:43:38;;;;;;;13.68;6.00;;;;;;;;;;5133615;27;20050;-68
2022/07/09 00:46:04;;;;;;;13.50;5.85;;;;;;;;;;5133696;27;20489;-68
2022/07/09 00:48:30;;;;;;;11.77;5.32;;;;;;;;;;5132564;27;20051;-68
2022/07/09 00:50:57;;;;;;;12.73;5.15;;;;;;;;;;5133472;27;20054;-68
2022/07/09 00:53:25;;;;;;;11.18;5.57;;;;;;;;;;5133629;27;20031;-68
2022/07/09 00:55:52;;;;;;;13.02;6.18;;;;;;;;;;5132989;27;20035;-68
2022/07/09 00:58:18;;;;;;;14.10;5.95;;;;;;;;;;5133332;27;20061;-68
2022/07/09 01:00:45;;;;;;;11.98;5.63;;;;;;;;;;5133252;27;20043;-68
2022/07/09 01:03:11;;;;;;;9.45;5.50;;;;;;;;;;5132785;27;20118;-68
2022/07/09 01:05:37;;;;;;;10.88;5.68;;;;;;;;;;5132972;27;20509;-68
2022/07/09 01:08:07;;;;;;;7.60;5.65;;;;;;;;;;5133057;27;20099;-68
2022/07/09 01:10:34;;;;;;;14.82;5.78;;;;;;;;;;5133063;27;20061;-68
2022/07/09 01:13:00;;;;;;;9.93;6.40;;;;;;;;;;5132267;27;20087;-68
2022/07/09 01:15:26;;;;;;;14.65;6.65;;;;;;;;;;5133173;27;20035;-68
2022/07/09 01:17:52;;;;;;;11.02;5.90;;;;;;;;;;5133119;27;20051;-68
2022/07/09 01:20:31;;;;;;;11.32;5.78;;;;;;;;;;5132316;27;20042;-68
2022/07/09 01:22:58;;;;;;;10.55;6.45;;;;;;;;;;5132995;27;20050;-68
2022/07/09 01:25:36;;;;;;;15.20;6.88;;;;;;;;;;5130199;27;20043;-68
2022/07/09 01:28:05;;;;;;;16.02;6.22;;;;;;;;;;5112370;28;20047;-68
2022/07/09 01:30:32;;;;;;;13.25;6.53;;;;;;;;;;5112255;28;20051;-68
2022/07/09 01:32:58;;;;;;;11.10;6.55;;;;;;;;;;5110182;28;20032;-68
2022/07/09 01:35:24;;;;;;;11.05;6.63;;;;;;;;;;5112119;28;20040;-68
2022/07/09 01:37:51;;;;;;;11.20;6.68;;;;;;;;;;5112227;28;20094;-68
2022/07/09 01:40:17;;;;;;;12.52;6.55;;;;;;;;;;5111416;28;20036;-68
2022/07/09 01:42:43;;;;;;;19.33;7.45;;;;;;;;;;5112058;28;20044;-68
2022/07/09 01:45:10;;;;;;;15.10;7.13;;;;;;;;;;5110891;28;20651;-68
2022/07/09 01:47:36;;;;;;;15.93;7.50;;;;;;;;;;5111285;28;20050;-68
2022/07/09 01:50:02;;;;;;;12.65;7.53;;;;;;;;;;5112018;28;20035;-68
2022/07/09 01:52:29;;;;;;;16.83;7.80;;;;;;;;;;5111622;28;20181;-68
2022/07/09 01:54:55;;;;;;;13.52;6.57;;;;;;;;;;5112051;28;20145;-68
2022/07/09 01:57:22;;;;;;;12.50;6.50;;;;;;;;;;5111495;28;20032;-68
2022/07/09 01:59:48;;;;;;;12.02;6.50;;;;;;;;;;5111968;28;20092;-68
2022/07/09 02:02:14;;;;;;;14.45;8.40;;;;;;;;;;5110595;28;20054;-68
2022/07/09 02:04:40;;;;;;;15.57;8.32;;;;;;;;;;5110912;28;20109;-68
2022/07/09 02:07:06;;;;;;;12.80;7.25;;;;;;;;;;5110615;28;20076;-68
2022/07/09 02:09:32;;;;;;;13.00;7.85;;;;;;;;;;5111549;28;20046;-68
2022/07/09 02:11:58;;;;;;;13.43;7.10;;;;;;;;;;5111167;28;20042;-68
2022/07/09 02:14:24;;;;;;;17.33;8.20;;;;;;;;;;5111855;28;20389;-68
2022/07/09 02:16:50;;;;;;;15.70;7.60;;;;;;;;;;5110558;28;20052;-68
2022/07/09 02:19:16;;;;;;;15.25;7.60;;;;;;;;;;5111140;28;20036;-68
2022/07/09 02:21:42;;;;;;;12.00;8.25;;;;;;;;;;5111751;28;20044;-68
2022/07/09 02:24:08;;;;;;;15.00;7.60;;;;;;;;;;5112841;28;20040;-68
2022/07/09 02:26:34;;;;;;;10.25;6.90;;;;;;;;;;5127034;27;20500;-68
2022/07/09 02:29:01;;;;;;;16.70;7.85;;;;;;;;;;5136129;27;20050;-68
2022/07/09 02:31:28;;;;;;;15.07;7.40;;;;;;;;;;5136223;27;20087;-68
2022/07/09 02:33:54;;;;;;;12.88;7.38;;;;;;;;;;5135506;27;20050;-68
2022/07/09 02:36:20;;;;;;;14.65;7.28;;;;;;;;;;5136199;27;20031;-68
2022/07/09 02:38:46;;;;;;;11.35;7.45;;;;;;;;;;5136033;27;20043;-68
2022/07/09 02:41:12;;;;;;;12.95;7.10;;;;;;;;;;5135428;27;20420;-68
2022/07/09 02:43:38;;;;;;;14.00;7.80;;;;;;;;;;5134548;27;20121;-68
2022/07/09 02:46:04;;;;;;;13.57;8.00;;;;;;;;;;5135942;27;20499;-68
2022/07/09 02:48:31;;;;;;;15.10;7.32;;;;;;;;;;5135218;27;20042;-68
2022/07/09 02:50:57;;;;;;;14.07;7.38;;;;;;;;;;5135798;27;20043;-68
2022/07/09 02:53:23;;;;;;;13.15;6.95;;;;;;;;;;5135908;27;20046;-68
2022/07/09 02:55:50;;;;;;;12.88;7.32;;;;;;;;;;5135084;27;20111;-68
2022/07/09 02:58:16;;;;;;;13.85;7.13;;;;;;;;;;5134073;27;20043;-68
2022/07/09 03:00:42;;;;;;;13.63;7.18;;;;;;;;;;5135632;27;20046;-68
2022/07/09 03:03:08;;;;;;;14.38;7.50;;;;;;;;;;5135057;27;20039;-68
2022/07/09 03:05:34;;;;;;;10.57;7.90;;;;;;;;;;5113514;28;20135;-68
2022/07/09 03:08:01;;;;;;;13.68;7.18;;;;;;;;;;5114853;28;20084;-68
2022/07/09 03:10:27;;;;;;;14.93;7.20;;;;;;;;;;5114293;28;20032;-68
2022/07/09 03:12:53;;;;;;;14.02;7.60;;;;;;;;;;5114795;28;20058;-68
2022/07/09 03:15:19;;;;;;;12.75;7.20;;;;;;;;;;5114989;28;20661;-68
2022/07/09 03:17:46;;;;;;;11.73;7.15;;;;;;;;;;5114234;27;20562;-68
2022/07/09 03:20:12;;;;;;;14.13;7.10;;;;;;;;;;5114879;28;20401;-68
2022/07/09 03:22:38;;;;;;;11.00;6.85;;;;;;;;;;5114690;28;20057;-68
2022/07/09 03:25:05;;;;;;;13.77;7.35;;;;;;;;;;5114005;28;20041;-68
2022/07/09 03:27:31;;;;;;;13.60;7.38;;;;;;;;;;5094405;28;20044;-68
2022/07/09 03:29:57;;;;;;;10.57;6.70;;;;;;;;;;5094254;28;20076;-68
2022/07/09 03:32:24;;;;;;;13.35;7.47;;;;;;;;;;5093343;28;20044;-68
2022/07/09 03:34:52;;;;;;;11.95;7.03;;;;;;;;;;5094212;28;20047;-68
2022/07/09 03:37:18;;;;;;;11.68;7.72;;;;;;;;;;5094237;28;20653;-68
2022/07/09 03:39:44;;;;;;;13.05;7.22;;;;;;;;;;5093637;28;20115;-68
2022/07/09 03:42:11;;;;;;;12.90;7.22;;;;;;;;;;5093954;28;20363;-68
2022/07/09 03:44:37;;;;;;;10.85;6.75;;;;;;;;;;5093710;28;20032;-68
2022/07/09 03:47:04;;;;;;;11.07;7.30;;;;;;;;;;5093041;28;20176;-68
2022/07/09 03:49:30;;;;;;;12.68;7.88;;;;;;;;;;5093716;28;20477;-68
2022/07/09 03:51:56;;;;;;;11.02;7.32;;;;;;;;;;5093682;28;20047;-68
2022/07/09 03:54:22;;;;;;;10.88;7.57;;;;;;;;;;5093273;28;20028;-68
2022/07/09 03:56:48;;;;;;;11.27;7.18;;;;;;;;;;5093676;28;20032;-68
2022/07/09 03:59:14;;;;;;;13.85;7.13;;;;;;;;;;5093306;28;20505;-68
2022/07/09 04:01:40;;;;;;;11.68;7.40;;;;;;;;;;5092930;28;20065;-68
2022/07/09 04:04:06;;;;;;;14.60;7.35;;;;;;;;;;5101428;28;20048;-68
2022/07/09 04:06:32;;;;;;;13.80;8.13;;;;;;;;;;5113835;28;20046;-68
2022/07/09 04:09:03;;;;;;;15.18;8.23;;;;;;;;;;5112847;28;20054;-68
2022/07/09 04:11:30;;;;;;;18.08;7.90;;;;;;;;;;5113808;28;20037;-68
2022/07/09 04:13:56;;;;;;;16.58;8.25;;;;;;;;;;5113830;28;20039;-68
2022/07/09 04:16:22;;;;;;;15.70;8.07;;;;;;;;;;5113123;28;20450;-69
2022/07/09 04:18:48;;;;;;;13.07;7.80;;;;;;;;;;5113777;28;20570;-69
2022/07/09 04:21:16;;;;;;;14.82;8.18;;;;;;;;;;5113291;28;20096;-69
2022/07/09 04:23:42;;;;;;;17.15;8.05;;;;;;;;;;5113164;28;20132;-69
2022/07/09 04:26:09;;;;;;;13.20;8.02;;;;;;;;;;5121854;27;20039;-69
2022/07/09 04:28:37;;;;;;;18.98;8.43;;;;;;;;;;5133691;27;20477;-69
2022/07/09 04:31:03;;;;;;;14.13;8.80;;;;;;;;;;5133218;27;20121;-69
2022/07/09 04:33:29;;;;;;;19.73;8.85;;;;;;;;;;5132322;27;20035;-69
2022/07/09 04:35:56;;;;;;;15.88;8.70;;;;;;;;;;5133628;27;20051;-69
2022/07/09 04:38:22;;;;;;;15.68;8.55;;;;;;;;;;5133354;27;20117;-69
2022/07/09 04:40:48;;;;;;;18.95;9.20;;;;;;;;;;5133660;27;20050;-69
2022/07/09 04:43:14;;;;;;;16.52;9.23;;;;;;;;;;5133656;27;20095;-69
2022/07/09 04:45:40;;;;;;;16.98;9.23;;;;;;;;;;5133039;27;20039;-69
2022/07/09 04:48:06;;;;;;;16.98;9.10;;;;;;;;;;5132963;27;20048;-69
2022/07/09 04:50:32;;;;;;;16.27;9.70;;;;;;;;;;5133655;27;20031;-69
2022/07/09 04:52:58;;;;;;;15.55;9.52;;;;;;;;;;5132771;27;20207;-69
2022/07/09 04:55:24;;;;;;;16.60;9.65;;;;;;;;;;5133486;27;20042;-69
2022/07/09 04:57:50;;;;;;;15.13;9.80;;;;;;;;;;5133293;27;20039;-69
2022/07/09 05:00:16;;;;;;;19.80;9.70;;;;;;;;;;5132806;27;20055;-69
2022/07/09 05:02:45;;;;;;;14.80;9.23;;;;;;;;;;5133248;27;20390;-69
2022/07/09 05:05:13;;;;;;;18.15;9.90;;;;;;;;;;5132875;27;20058;-69
2022/07/09 05:07:39;;;;;;;22.48;10.88;;;;;;;;;;5132415;27;20049;-69
2022/07/09 05:10:06;;;;;;;19.55;10.25;;;;;;;;;;5133282;27;20039;-69
2022/07/09 05:12:32;;;;;;;19.17;10.07;;;;;;;;;;5133030;27;20522;-69
2022/07/09 05:14:58;;;;;;;13.80;8.50;;;;;;;;;;5132539;27;20046;-69
2022/07/09 05:17:24;;;;;;;17.45;9.70;;;;;;;;;;5132756;27;20039;-69
2022/07/09 05:19:50;;;;;;;14.30;8.75;;;;;;;;;;5133052;27;20099;-69
2022/07/09 05:22:16;;;;;;;20.33;10.10;;;;;;;;;;5132411;27;20039;-69
2022/07/09 05:24:43;;;;;;;16.88;10.15;;;;;;;;;;5132813;27;20359;-69
2022/07/09 05:27:09;;;;;;;14.15;8.48;;;;;;;;;;5116006;27;20114;-69
2022/07/09 05:29:36;;;;;;;14.90;8.70;;;;;;;;;;5111885;28;20098;-69
2022/07/09 05:32:03;;;;;;;13.60;8.70;;;;;;;;;;5111800;28;20051;-69
2022/07/09 05:34:29;;;;;;;13.57;8.35;;;;;;;;;;5110728;28;20453;-69
2022/07/09 05:36:55;;;;;;;14.45;8.23;;;;;;;;;;5111982;28;20118;-69
2022/07/09 05:39:22;;;;;;;16.80;8.15;;;;;;;;;;5111710;28;20074;-69
2022/07/09 05:41:48;;;;;;;13.00;7.88;;;;;;;;;;5111999;28;20050;-69
2022/07/09 05:44:14;;;;;;;10.50;8.00;;;;;;;;;;5111970;28;20035;-69
2022/07/09 05:46:40;;;;;;;14.50;8.48;;;;;;;;;;5111493;28;20043;-69
2022/07/09 05:49:06;;;;;;;12.68;7.22;;;;;;;;;;5111640;28;20104;-69
2022/07/09 05:51:32;;;;;;;14.20;7.93;;;;;;;;;;5110410;28;20119;-69
2022/07/09 05:53:59;;;;;;;14.23;7.53;;;;;;;;;;5111582;28;20042;-69
2022/07/09 05:56:25;;;;;;;14.90;7.60;;;;;;;;;;5111912;28;20411;-69
2022/07/09 05:58:51;;;;;;;14.55;7.97;;;;;;;;;;5112528;28;20039;-69
2022/07/09 06:01:17;;;;;;;11.68;6.60;;;;;;;;;;5115330;28;20098;-69
2022/07/09 06:03:43;;;;;;;12.98;7.18;;;;;;;;;;5116048;28;20051;-69
2022/07/09 06:06:10;;;;;;;8.93;6.68;;;;;;;;;;5116249;28;20123;-69
2022/07/09 06:08:36;;;;;;;10.00;6.50;;;;;;;;;;5113960;28;20475;-69
2022/07/09 06:11:03;;;;;;;10.57;6.20;;;;;;;;;;5115828;27;20071;-69
2022/07/09 06:13:29;;;;;;;11.85;6.55;;;;;;;;;;5116136;28;20519;-69
2022/07/09 06:15:55;;;;;;;11.90;6.18;;;;;;;;;;5115463;28;20119;-69
2022/07/09 06:18:24;;;;;;;7.85;5.45;;;;;;;;;;5115820;28;20035;-69
2022/07/09 06:20:50;;;;;;;8.02;5.25;;;;;;;;;;5115956;28;20083;-69
2022/07/09 06:23:16;;;;;;;11.45;5.53;;;;;;;;;;5115300;28;20047;-69
2022/07/09 06:25:42;;;;;;;11.77;5.55;;;;;;;;;;5120302;27;20035;-69
2022/07/09 06:28:08;;;;;;;9.32;5.70;;;;;;;;;;5135918;27;20043;-69
2022/07/09 06:30:34;;;;;;;9.93;6.20;;;;;;;;;;5135447;27;20046;-69
2022/07/09 06:33:01;;;;;;;8.55;4.85;;;;;;;;;;5136219;27;20035;-69
2022/07/09 06:35:27;;;;;;;11.30;5.18;;;;;;;;;;5136344;27;20043;-69
2022/07/09 06:37:53;;;;;;;13.88;5.50;;;;;;;;;;5135515;27;20558;-69
2022/07/09 06:40:19;;;;;;;11.20;4.85;;;;;;;;;;5136207;27;20039;-69
2022/07/09 06:42:45;;;;;;;8.52;5.18;;;;;;;;;;5135962;27;20442;-69
2022/07/09 06:45:11;;;;;;;12.82;5.75;;;;;;;;;;5135404;27;20039;-69
2022/07/09 06:47:37;;;;;;;8.45;5.13;;;;;;;;;;5136039;27;20389;-69
2022/07/09 06:50:04;;;;;;;5.35;4.25;;;;;;;;;;5135601;27;20122;-69
2022/07/09 06:52:30;;;;;;;5.65;4.35;;;;;;;;;;5135259;27;20039;-69
2022/07/09 06:54:56;;;;;;;12.45;4.93;;;;;;;;;;5135634;27;20122;-69
2022/07/09 06:57:22;;;;;;;10.13;4.43;;;;;;;;;;5135867;27;20035;-69
2022/07/09 06:59:48;;;;;;;8.70;4.30;;;;;;;;;;5135079;27;20039;-69
2022/07/09 07:02:16;;;;;;;9.35;4.35;;;;;;;;;;5134340;27;20039;-69
2022/07/09 07:04:42;;;;;;;8.00;3.80;;;;;;;;;;5135497;27;20062;-68
2022/07/09 07:07:08;;;;;;;7.00;4.18;;;;;;;;;;5135071;27;20088;-68
2022/07/09 07:09:34;;;;;;;10.35;4.25;;;;;;;;;;5134946;27;20043;-68
2022/07/09 07:12:00;;;;;;;8.65;3.78;;;;;;;;;;5135231;27;20031;-68
2022/07/09 07:14:26;;;;;;;8.15;3.70;;;;;;;;;;5135079;27;20363;-68
2022/07/09 07:16:53;;;;;;;9.20;3.65;;;;;;;;;;5135696;27;20638;-68
2022/07/09 07:19:20;;;;;;;7.57;3.85;;;;;;;;;;5134154;27;20096;-68
2022/07/09 07:21:47;;;;;;;7.20;4.40;;;;;;;;;;5134655;27;20046;-68
2022/07/09 07:24:13;;;;;;;8.15;3.70;;;;;;;;;;5135266;27;20465;-68
2022/07/09 07:26:39;;;;;;;11.32;4.25;;;;;;;;;;5122707;27;20066;-68
2022/07/09 07:29:05;;;;;;;8.80;3.42;;;;;;;;;;5113878;28;20031;-68
2022/07/09 07:31:31;;;;;;;6.53;3.65;;;;;;;;;;5114230;28;20035;-68
2022/07/09 07:33:59;;;;;;;6.43;3.80;;;;;;;;;;5114451;28;20035;-68
2022/07/09 07:36:25;;;;;;;8.73;3.78;;;;;;;;;;5113966;28;20039;-68
2022/07/09 07:38:51;;;;;;;8.10;3.25;;;;;;;;;;5114440;28;20040;-68
2022/07/09 07:41:18;;;;;;;7.80;3.33;;;;;;;;;;5114381;28;20120;-68
2022/07/09 07:43:44;;;;;;;6.47;3.47;;;;;;;;;;5112428;28;20051;-68
2022/07/09 07:46:11;;;;;;;6.78;3.20;;;;;;;;;;5114272;28;20046;-68
2022/07/09 07:48:37;;;;;;;6.28;3.30;;;;;;;;;;5114303;28;20122;-68
2022/07/09 07:51:03;;;;;;;6.68;3.15;;;;;;;;;;5113542;28;20043;-68
2022/07/09 07:53:32;;;;;;;5.90;2.92;;;;;;;;;;5114172;28;20039;-68
2022/07/09 07:56:00;;;;;;;6.70;3.50;;;;;;;;;;5114172;28;20031;-68
2022/07/09 07:58:26;;;;;;;8.68;3.28;;;;;;;;;;5113521;28;20637;-68
2022/07/09 08:00:53;;;;;;;9.15;3.17;;;;;;;;;;5113704;28;20082;-68
2022/07/09 08:03:19;;;;;;;4.28;2.83;;;;;;;;;;5113973;27;20463;-68
2022/07/09 08:05:45;;;;;;;8.38;2.70;;;;;;;;;;5113088;28;20040;-68
2022/07/09 08:08:11;;;;;;;4.38;2.53;;;;;;;;;;5113917;28;20054;-68
2022/07/09 08:10:37;;;;;;;4.82;2.20;;;;;;;;;;5113797;28;20040;-68
2022/07/09 08:13:03;;;;;;;4.45;1.95;;;;;;;;;;5113219;28;20074;-68
2022/07/09 08:15:29;;;;;;;6.43;2.30;;;;;;;;;;5113850;28;20036;-68
2022/07/09 08:17:55;;;;;;;4.45;2.42;;;;;;;;;;5113527;28;20040;-68
2022/07/09 08:20:21;;;;;;;6.15;2.40;;;;;;;;;;5113036;28;20039;-68
2022/07/09 08:22:47;;;;;;;3.90;2.00;;;;;;;;;;5112769;28;20107;-68
2022/07/09 08:25:13;;;;;;;3.28;2.35;;;;;;;;;;5113779;28;20044;-68
2022/07/09 08:27:40;;;;;;;5.63;2.00;;;;;;;;;;5133485;27;20045;-68
2022/07/09 08:30:06;;;;;;;4.00;1.70;;;;;;;;;;5134008;27;20096;-68
2022/07/09 08:32:32;;;;;;;2.15;1.75;;;;;;;;;;5133896;27;20031;-68
2022/07/09 08:34:58;;;;;;;2.53;1.63;;;;;;;;;;5133387;27;20118;-68
2022/07/09 08:37:24;;;;;;;3.75;2.10;;;;;;;;;;5132416;27;20389;-68
2022/07/09 08:39:51;;;;;;;4.57;1.67;;;;;;;;;;5133835;27;20035;-68
2022/07/09 08:42:17;;;;;;;5.93;1.80;;;;;;;;;;5132625;27;20141;-68
2022/07/09 08:44:46;;;;;;;3.92;1.83;;;;;;;;;;5132431;27;20046;-68
2022/07/09 08:47:14;;;;;;;4.00;1.77;;;;;;;;;;5133512;27;20825;-68
2022/07/09 08:49:41;;;;;;;3.75;1.50;;;;;;;;;;5132795;27;20134;-68
2022/07/09 08:52:07;;;;;;;3.42;2.00;;;;;;;;;;5133098;27;20041;-68
2022/07/09 08:54:36;;;;;;;2.28;1.38;;;;;;;;;;5133564;27;20035;-68
2022/07/09 08:57:02;;;;;;;2.25;1.60;;;;;;;;;;5132508;27;20043;-68
2022/07/09 08:59:28;;;;;;;2.10;1.50;;;;;;;;;;5133468;27;20070;-68
2022/07/09 09:01:54;;;;;;;3.63;1.80;;;;;;;;;;5133328;27;20374;-68
2022/07/09 09:04:20;;;;;;;2.70;1.40;;;;;;;;;;5132292;27;20059;-68
2022/07/09 09:06:46;;;;;;;4.03;1.33;;;;;;;;;;5133223;27;20054;-68
2022/07/09 09:09:18;;;;;;;2.90;1.60;;;;;;;;;;5133128;27;20429;-68
2022/07/09 09:11:47;;;;;;;4.38;1.33;;;;;;;;;;5132387;27;20492;-68
2022/07/09 09:14:20;;;;;;;2.03;1.60;;;;;;;;;;5131636;27;20047;-69
2022/07/09 09:16:46;;;;;;;1.63;1.25;;;;;;;;;;5133148;27;20036;-69
2022/07/09 09:19:12;;;;;;;2.08;1.10;;;;;;;;;;5132413;27;20542;-69
2022/07/09 09:21:38;;;;;;;5.45;1.30;;;;;;;;;;5132551;27;20099;-69
2022/07/09 09:24:04;;;;;;;3.03;1.50;;;;;;;;;;5133070;27;20123;-69
2022/07/09 09:26:33;;;;;;;3.83;1.33;;;;;;;;;;5119387;27;20074;-69
2022/07/09 09:29:03;;;;;;;3.33;0.90;;;;;;;;;;5110811;28;20119;-69
2022/07/09 09:31:29;;;;;;;4.30;1.20;;;;;;;;;;5110756;28;20039;-69
2022/07/09 09:34:10;;;;;;;1.92;1.15;;;;;;;;;;5111365;28;20088;-69
2022/07/09 09:36:40;;;;;;;3.33;1.23;;;;;;;;;;5112289;28;20043;-69
2022/07/09 09:39:09;;;;;;;4.18;1.25;;;;;;;;;;5112349;28;20044;-69
2022/07/09 09:41:35;;;;;;;6.20;1.13;;;;;;;;;;5111385;28;20054;-69
2022/07/09 09:44:05;;;;;;;3.97;0.98;;;;;;;;;;5112063;28;20044;-69
2022/07/09 09:46:33;;;;;;;3.30;1.05;;;;;;;;;;5112252;28;20043;-69
2022/07/09 09:48:59;;;;;;;2.63;1.17;;;;;;;;;;5111445;28;20036;-69
2022/07/09 09:51:26;;;;;;;1.80;1.00;;;;;;;;;;5111943;28;20123;-69
2022/07/09 09:53:53;;;;;;;2.85;1.17;;;;;;;;;;5112312;28;20032;-69
2022/07/09 09:56:19;;;;;;;4.15;1.13;;;;;;;;;;5111425;28;20047;-69
2022/07/09 09:58:45;;;;;;;4.75;1.00;;;;;;;;;;5112076;28;20044;-69
2022/07/09 10:01:12;;;;;;;3.05;1.10;;;;;;;;;;5111937;28;20043;-69
2022/07/09 10:03:39;;;;;;;5.00;1.40;;;;;;;;;;5111088;28;20058;-69
2022/07/09 10:06:06;;;;;;;5.28;1.25;;;;;;;;;;5112037;28;20036;-69
2022/07/09 10:08:32;;;;;;;5.30;1.05;;;;;;;;;;5111644;28;20050;-69
2022/07/09 10:10:58;;;;;;;2.72;1.13;;;;;;;;;;5111343;28;20031;-69
2022/07/09 10:13:24;;;;;;;5.85;1.00;;;;;;;;;;5112035;28;20043;-69
2022/07/09 10:15:51;;;;;;;4.97;1.30;;;;;;;;;;5112047;28;20038;-69
2022/07/09 10:18:18;;;;;;;5.72;1.10;;;;;;;;;;5111019;28;20097;-69
2022/07/09 10:20:44;;;;;;;3.55;0.95;;;;;;;;;;5110352;28;20051;-69
2022/07/09 10:23:28;;;;;;;5.13;1.23;;;;;;;;;;5111531;28;20040;-69
2022/07/09 10:25:57;;;;;;;5.50;0.95;;;;;;;;;;5116949;28;20092;-69
2022/07/09 10:28:26;;;;;;;4.28;1.00;;;;;;;;;;5132040;27;20508;-69
2022/07/09 10:30:53;;;;;;;3.40;1.30;;;;;;;;;;5132126;27;20035;-69
2022/07/09 10:33:19;;;;;;;4.60;1.00;;;;;;;;;;5131474;27;20035;-69
2022/07/09 10:35:47;;;;;;;9.30;1.70;;;;;;;;;;5132518;27;20031;-69
2022/07/09 10:38:14;;;;;;;4.53;1.58;;;;;;;;;;5131887;27;20043;-69
2022/07/09 10:40:41;;;;;;;3.97;1.50;;;;;;;;;;5131637;27;20043;-69
2022/07/09 10:43:07;;;;;;;2.78;1.10;;;;;;;;;;5132055;27;20039;-69
2022/07/09 10:45:37;;;;;;;3.05;0.90;;;;;;;;;;5133387;27;20129;-69
2022/07/09 10:48:04;;;;;;;4.50;1.10;;;;;;;;;;5135165;27;20189;-69
2022/07/09 10:50:31;;;;;;;3.17;1.13;;;;;;;;;;5135895;27;20130;-69
2022/07/09 10:52:59;;;;;;;2.22;1.00;;;;;;;;;;5135746;27;20046;-69
2022/07/09 10:55:27;;;;;;;3.47;1.05;;;;;;;;;;5134937;27;20086;-69
2022/07/09 10:57:54;;;;;;;3.05;0.80;;;;;;;;;;5134185;27;20051;-69
2022/07/09 11:00:22;;;;;;;7.43;1.05;;;;;;;;;;5135831;27;20515;-69
2022/07/09 11:02:53;;;;;;;3.88;1.40;;;;;;;;;;5133713;27;20039;-69
2022/07/09 11:05:19;;;;;;;3.78;1.17;;;;;;;;;;5133983;27;20519;-69
2022/07/09 11:07:54;;;;;;;4.65;1.02;;;;;;;;;;5135616;27;20485;-69
2022/07/09 11:10:20;;;;;;;3.03;1.10;;;;;;;;;;5135089;27;20043;-69
2022/07/09 11:12:49;;;;;;;2.80;1.13;;;;;;;;;;5135540;27;20473;-69
2022/07/09 11:15:19;;;;;;;5.38;1.30;;;;;;;;;;5135581;27;20035;-69
2022/07/09 11:17:54;;;;;;;4.82;1.50;;;;;;;;;;5134827;27;20081;-69
2022/07/09 11:20:20;;;;;;;4.65;1.50;;;;;;;;;;5135481;27;20466;-69
2022/07/09 11:22:50;;;;;;;4.68;1.20;;;;;;;;;;5135402;27;20035;-69
2022/07/09 11:25:16;;;;;;;6.47;1.70;;;;;;;;;;5133879;27;20035;-69
2022/07/09 11:27:43;;;;;;;6.88;1.73;;;;;;;;;;5114711;28;20040;-69
2022/07/09 11:30:13;;;;;;;7.57;1.63;;;;;;;;;;5114296;28;20044;-69
2022/07/09 11:32:39;;;;;;;9.88;1.70;;;;;;;;;;5113901;28;20044;-69
2022/07/09 11:35:05;;;;;;;7.43;1.65;;;;;;;;;;5114696;28;20036;-69
2022/07/09 11:37:31;;;;;;;9.45;1.80;;;;;;;;;;5130782;27;20035;-69
2022/07/09 11:39:57;;;;;;;8.18;1.95;;;;;;;;;;5133969;27;20122;-69
2022/07/09 11:42:24;;;;;;;6.57;1.92;;;;;;;;;;5134645;27;20347;-69
2022/07/09 11:44:59;;;;;;;6.32;1.52;;;;;;;;;;5134787;27;20139;-69
2022/07/09 11:47:38;;;;;;;5.22;1.38;;;;;;;;;;5134232;27;20043;-69
2022/07/09 11:50:12;;;;;;;5.93;1.50;;;;;;;;;;5134654;27;20085;-69
2022/07/09 11:52:44;;;;;;;5.95;1.45;;;;;;;;;;5134773;27;20062;-69
2022/07/09 11:55:11;;;;;;;7.05;1.55;;;;;;;;;;5133870;27;20062;-69
2022/07/09 11:57:37;;;;;;;6.72;1.98;;;;;;;;;;5133348;27;20432;-69
2022/07/09 12:00:05;;;;;;;5.30;1.40;;;;;;;;;;5134655;27;20066;-69
2022/07/09 12:02:34;;;;;;;6.05;1.20;;;;;;;;;;5133813;27;20094;-69
2022/07/09 12:05:01;;;;;;;4.80;1.60;;;;;;;;;;5134219;27;20047;-69
2022/07/09 12:07:27;;;;;;;5.80;1.55;;;;;;;;;;5134269;27;20497;-69
2022/07/09 12:10:06;;;;;;;5.38;1.35;;;;;;;;;;5133654;27;20045;-69
2022/07/09 12:12:33;;;;;;;4.63;1.17;;;;;;;;;;5133889;27;20031;-69
2022/07/09 12:15:01;;;;;;;3.55;1.00;;;;;;;;;;5134285;27;20062;-69
2022/07/09 12:17:28;;;;;;;4.05;1.17;;;;;;;;;;5132093;27;20446;-69
2022/07/09 12:19:54;;;;;;;2.53;0.95;;;;;;;;;;5134265;27;20100;-69
2022/07/09 12:22:21;;;;;;;5.47;1.10;;;;;;;;;;5134227;27;20043;-69
2022/07/09 12:24:47;;;;;;;3.70;0.80;;;;;;;;;;5133474;27;20074;-69
2022/07/09 12:27:13;;;;;;;4.65;1.30;;;;;;;;;;5116595;27;20044;-69
2022/07/09 12:29:39;;;;;;;6.55;1.33;;;;;;;;;;5113215;28;20600;-69
2022/07/09 12:32:05;;;;;;;2.05;0.90;;;;;;;;;;5112717;28;20040;-69
2022/07/09 12:34:32;;;;;;;4.22;0.82;;;;;;;;;;5113363;28;20047;-69
2022/07/09 12:36:58;;;;;;;4.13;0.82;;;;;;;;;;5112191;28;20048;-69
2022/07/09 12:39:24;;;;;;;3.22;0.98;;;;;;;;;;5112411;28;20043;-69
2022/07/09 12:41:50;;;;;;;4.72;0.80;;;;;;;;;;5113248;28;20043;-69
2022/07/09 12:44:16;;;;;;;2.15;0.70;;;;;;;;;;5113342;28;20493;-69
2022/07/09 12:46:42;;;;;;;2.67;1.13;;;;;;;;;;5112590;28;20466;-69
2022/07/09 12:49:08;;;;;;;3.80;0.80;;;;;;;;;;5111385;28;20050;-69
2022/07/09 12:51:34;;;;;;;2.50;0.90;;;;;;;;;;5113039;28;20480;-69
2022/07/09 12:54:00;;;;;;;7.80;1.25;;;;;;;;;;5112552;28;20032;-69
2022/07/09 12:56:26;;;;;;;3.53;1.00;;;;;;;;;;5113220;28;20373;-69
2022/07/09 12:58:52;;;;;;;7.28;1.02;;;;;;;;;;5111779;28;20050;-69
2022/07/09 13:01:19;;;;;;;4.22;1.05;;;;;;;;;;5112284;28;20047;-69
2022/07/09 13:03:45;;;;;;;3.03;0.88;;;;;;;;;;5112670;28;20134;-69
2022/07/09 13:08:57;;;;;;;2.75;0.80;;;;;;;;;;5111527;28;20055;-69
2022/07/09 13:11:23;;;;;;;5.43;0.80;;;;;;;;;;5112456;28;20039;-69
2022/07/09 13:13:49;;;;;;;2.58;1.17;;;;;;;;;;5112553;28;20062;-69
2022/07/09 13:16:15;;;;;;;5.07;0.90;;;;;;;;;;5112153;28;20535;-69
2022/07/09 13:18:41;;;;;;;4.85;0.95;;;;;;;;;;5112556;28;20532;-69
2022/07/09 13:21:07;;;;;;;5.90;1.40;;;;;;;;;;5112506;28;20051;-69
2022/07/09 13:23:33;;;;;;;4.68;0.90;;;;;;;;;;5112197;28;20047;-69
2022/07/09 13:25:59;;;;;;;3.13;1.10;;;;;;;;;;5112589;28;20035;-69
2022/07/09 13:28:26;;;;;;;5.75;1.73;;;;;;;;;;5112436;28;20493;-69
2022/07/09 13:30:52;;;;;;;5.57;1.08;;;;;;;;;;5111568;28;20051;-69
2022/07/09 13:33:18;;;;;;;4.50;0.82;;;;;;;;;;5112233;28;20119;-69
2022/07/09 13:35:44;;;;;;;4.47;0.80;;;;;;;;;;5112516;28;20118;-69
2022/07/09 13:38:10;;;;;;;3.95;0.90;;;;;;;;;;5111783;28;20069;-69
2022/07/09 13:40:36;;;;;;;3.28;0.98;;;;;;;;;;5112251;28;20115;-69
2022/07/09 13:43:03;;;;;;;3.20;1.00;;;;;;;;;;5112099;28;20126;-69
2022/07/09 13:45:29;;;;;;;4.75;1.00;;;;;;;;;;5111936;28;20039;-69
2022/07/09 13:47:55;;;;;;;4.40;0.75;;;;;;;;;;5111941;28;20390;-69
2022/07/09 13:50:21;;;;;;;3.15;0.82;;;;;;;;;;5112331;28;20063;-69
2022/07/09 13:52:48;;;;;;;5.43;1.10;;;;;;;;;;5112063;28;20085;-69
2022/07/09 13:55:15;;;;;;;6.45;0.80;;;;;;;;;;5111614;28;20036;-69
2022/07/09 13:57:41;;;;;;;6.38;0.90;;;;;;;;;;5112170;28;20120;-69
2022/07/09 14:00:08;;;;;;;4.97;0.90;;;;;;;;;;5112184;28;20164;-69
2022/07/09 14:02:34;;;;;;;5.53;0.85;;;;;;;;;;5111412;28;20039;-69
2022/07/09 14:05:01;;;;;;;4.05;0.98;;;;;;;;;;5111836;28;20509;-69
2022/07/09 14:07:27;;;;;;;7.38;1.30;;;;;;;;;;5112164;28;20633;-69
2022/07/09 14:09:53;;;;;;;3.42;1.00;;;;;;;;;;5111296;28;20052;-69
2022/07/09 14:12:20;;;;;;;6.03;0.98;;;;;;;;;;5111802;28;20038;-69
2022/07/09 14:14:46;;;;;;;3.92;0.80;;;;;;;;;;5111995;28;20036;-69
2022/07/09 14:17:12;;;;;;;5.10;0.90;;;;;;;;;;5111591;28;20471;-69
2022/07/09 14:19:38;;;;;;;3.83;0.88;;;;;;;;;;5111984;28;20120;-69
2022/07/09 14:22:05;;;;;;;4.60;0.73;;;;;;;;;;5116124;28;20135;-69
2022/07/09 14:24:31;;;;;;;2.97;0.63;;;;;;;;;;5115296;28;20054;-69
2022/07/09 14:26:58;;;;;;;2.92;0.80;;;;;;;;;;5131058;27;20043;-69
2022/07/09 14:29:24;;;;;;;4.88;0.75;;;;;;;;;;5136300;27;20126;-69
2022/07/09 14:31:50;;;;;;;8.73;1.35;;;;;;;;;;5135493;27;20375;-69
2022/07/09 14:34:17;;;;;;;3.22;0.70;;;;;;;;;;5136422;27;20042;-69
2022/07/09 14:36:43;;;;;;;3.67;0.80;;;;;;;;;;5136072;27;20074;-69
2022/07/09 14:39:09;;;;;;;3.70;0.80;;;;;;;;;;5135283;27;20039;-69